Time;durP1;ratioP1;P1;durP2;ratioP2;P2;SDS_P1;SDS_P2;PMS_P1;PMS_P2;Temp;Humidity;BMP_temperature;BMP_pressure;BME280_temperature;BME280_humidity;BME280_pressure;Samples;Min_cycle;Max_cycle;Signal;HPM_P1;HPM_P2
2022/04/24 00:01:43;;;;;;;16.90;11.73;;;11.50;99.90;;;;;;5152827;27;20444;-46
2022/04/24 00:04:10;;;;;;;13.07;9.70;;;11.50;99.90;;;;;;5152770;27;20433;-45
2022/04/24 00:06:39;;;;;;;5.00;4.50;;;11.60;99.90;;;;;;5153280;27;20492;-48
2022/04/24 00:09:06;;;;;;;2.30;1.37;;;11.70;99.90;;;;;;5153073;27;20972;-45
2022/04/24 00:11:33;;;;;;;0.80;0.40;;;12.30;99.90;;;;;;5153231;27;21006;-46
2022/04/24 00:14:00;;;;;;;5.80;1.17;;;12.70;99.90;;;;;;5152951;27;20476;-46
2022/04/24 00:16:27;;;;;;;1.70;0.40;;;12.90;99.90;;;;;;5153317;27;20456;-45
2022/04/24 00:18:53;;;;;;;0.70;0.40;;;13.10;99.90;;;;;;5153085;27;20930;-45
2022/04/24 00:21:20;;;;;;;0.80;0.40;;;13.30;99.90;;;;;;5153228;27;20469;-46
2022/04/24 00:23:49;;;;;;;1.37;0.50;;;13.40;99.90;;;;;;5152864;27;20509;-45
2022/04/24 00:26:15;;;;;;;5.70;0.63;;;13.50;99.90;;;;;;5152600;27;20469;-49
2022/04/24 00:28:42;;;;;;;6.87;0.87;;;13.80;99.90;;;;;;5153104;27;20432;-47
2022/04/24 00:31:09;;;;;;;0.90;0.50;;;13.80;99.90;;;;;;5153082;27;20469;-46
2022/04/24 00:33:36;;;;;;;12.80;1.93;;;13.90;99.90;;;;;;5152643;27;20504;-47
2022/04/24 00:36:03;;;;;;;13.47;1.70;;;13.80;99.90;;;;;;5152730;27;20856;-46
2022/04/24 00:38:32;;;;;;;0.70;0.40;;;13.80;99.90;;;;;;5152510;27;20480;-46
2022/04/24 00:41:01;;;;;;;0.90;0.50;;;13.80;99.90;;;;;;5152571;27;20516;-45
2022/04/24 00:43:28;;;;;;;0.70;0.30;;;13.80;99.90;;;;;;5152538;27;20437;-45
2022/04/24 00:46:09;;;;;;;0.90;0.37;;;13.70;99.90;;;;;;5152729;27;20981;-45
2022/04/24 00:48:36;;;;;;;6.27;0.70;;;13.90;99.90;;;;;;5152773;27;20466;-46
2022/04/24 00:51:03;;;;;;;12.20;2.20;;;14.00;99.90;;;;;;5152484;27;20492;-45
2022/04/24 00:53:30;;;;;;;0.70;0.30;;;14.10;99.90;;;;;;5152243;27;21073;-47
2022/04/24 00:55:58;;;;;;;0.80;0.40;;;14.10;99.90;;;;;;5152882;27;20471;-46
2022/04/24 00:58:26;;;;;;;6.70;1.10;;;13.90;99.90;;;;;;5152482;27;20496;-46
2022/04/24 01:00:53;;;;;;;22.00;1.70;;;14.00;98.60;;;;;;5152146;27;20493;-45
2022/04/24 01:03:20;;;;;;;12.63;1.57;;;14.30;98.30;;;;;;5151951;27;20432;-48
2022/04/24 01:05:47;;;;;;;5.90;1.17;;;14.20;99.40;;;;;;5152189;27;20863;-46
2022/04/24 01:08:14;;;;;;;1.63;0.40;;;14.10;99.70;;;;;;5156837;27;20535;-46
2022/04/24 01:10:42;;;;;;;2.07;0.40;;;14.00;99.90;;;;;;5159558;27;20436;-46
2022/04/24 01:13:10;;;;;;;1.77;0.43;;;14.00;99.90;;;;;;5159206;27;20437;-48
2022/04/24 01:15:38;;;;;;;2.87;0.77;;;13.80;99.90;;;;;;5159230;27;20526;-49
2022/04/24 01:18:07;;;;;;;1.50;0.40;;;13.70;99.90;;;;;;5159064;27;20456;-48
2022/04/24 01:20:35;;;;;;;4.77;0.70;;;13.80;99.90;;;;;;5159386;27;20433;-45
2022/04/24 01:23:02;;;;;;;8.50;2.70;;;13.80;99.90;;;;;;5159044;27;20861;-45
2022/04/24 01:25:29;;;;;;;0.70;0.40;;;13.50;99.90;;;;;;5159278;27;20482;-49
2022/04/24 01:27:56;;;;;;;1.90;0.50;;;13.30;99.90;;;;;;5158957;27;21034;-46
2022/04/24 01:30:23;;;;;;;1.10;0.50;;;13.00;99.90;;;;;;5158996;27;20493;-45
2022/04/24 01:32:50;;;;;;;0.70;0.40;;;12.80;99.90;;;;;;5159150;27;20483;-48
2022/04/24 01:35:18;;;;;;;0.70;0.30;;;12.80;99.90;;;;;;5159038;27;20891;-46
2022/04/24 01:37:46;;;;;;;1.17;0.43;;;13.00;99.90;;;;;;5158894;27;20460;-45
2022/04/24 01:40:13;;;;;;;0.90;0.40;;;13.10;99.90;;;;;;5158987;27;20444;-45
2022/04/24 01:42:40;;;;;;;0.70;0.50;;;13.10;99.90;;;;;;5158881;27;20465;-47
2022/04/24 01:45:08;;;;;;;0.60;0.30;;;12.90;99.90;;;;;;5158956;27;20519;-46
2022/04/24 01:47:35;;;;;;;0.60;0.30;;;12.70;99.90;;;;;;5159311;27;20539;-46
2022/04/24 01:50:02;;;;;;;0.67;0.30;;;12.80;99.90;;;;;;5158702;27;20993;-45
2022/04/24 01:52:29;;;;;;;0.70;0.37;;;12.60;99.90;;;;;;5158834;27;20541;-45
2022/04/24 01:54:57;;;;;;;0.70;0.30;;;12.60;99.90;;;;;;5158830;27;20472;-46
2022/04/24 01:57:24;;;;;;;0.60;0.30;;;12.70;99.90;;;;;;5158674;27;20452;-45
2022/04/24 01:59:51;;;;;;;0.70;0.40;;;12.70;99.90;;;;;;5158238;27;20455;-46
2022/04/24 02:02:18;;;;;;;2.20;0.60;;;12.70;99.90;;;;;;5158376;27;20468;-46
2022/04/24 02:04:45;;;;;;;2.07;0.63;;;12.90;99.90;;;;;;5158220;27;20519;-46
2022/04/24 02:07:12;;;;;;;0.90;0.43;;;12.80;99.90;;;;;;5158880;27;20492;-45
2022/04/24 02:09:40;;;;;;;1.57;0.50;;;12.70;99.80;;;;;;5158568;27;20482;-46
2022/04/24 02:12:09;;;;;;;0.70;0.43;;;12.80;98.80;;;;;;5158625;27;20949;-47
2022/04/24 02:14:37;;;;;;;8.23;1.40;;;12.70;98.80;;;;;;5158647;27;20504;-45
2022/04/24 02:17:05;;;;;;;2.70;0.60;;;12.70;97.90;;;;;;5158565;27;20491;-45
2022/04/24 02:19:32;;;;;;;0.70;0.40;;;12.80;97.20;;;;;;5155704;27;20445;-48
2022/04/24 02:21:59;;;;;;;0.60;0.30;;;13.00;96.20;;;;;;5155390;27;20476;-46
2022/04/24 02:24:26;;;;;;;4.00;1.00;;;13.10;95.50;;;;;;5155127;27;20519;-46
2022/04/24 02:26:53;;;;;;;1.97;0.57;;;13.10;95.20;;;;;;5154945;27;20520;-46
2022/04/24 02:29:21;;;;;;;1.37;0.40;;;13.30;94.70;;;;;;5155745;27;20437;-46
2022/04/24 02:31:48;;;;;;;5.10;0.70;;;13.30;94.20;;;;;;5155486;27;20440;-48
2022/04/24 02:34:15;;;;;;;0.80;0.40;;;13.50;94.00;;;;;;5154768;27;20848;-47
2022/04/24 02:36:42;;;;;;;3.30;0.50;;;13.50;93.20;;;;;;5154895;27;20471;-46
2022/04/24 02:39:09;;;;;;;1.20;0.40;;;13.50;93.50;;;;;;5155226;27;20437;-45
2022/04/24 02:41:36;;;;;;;16.37;1.67;;;13.50;93.70;;;;;;5155181;27;20477;-49
2022/04/24 02:44:03;;;;;;;0.60;0.30;;;13.50;94.00;;;;;;5154612;27;20489;-46
2022/04/24 02:46:32;;;;;;;0.80;0.50;;;13.50;94.40;;;;;;5154789;27;20539;-48
2022/04/24 02:48:58;;;;;;;0.70;0.40;;;13.50;94.70;;;;;;5154590;27;20939;-48
2022/04/24 02:51:25;;;;;;;1.30;0.40;;;13.40;95.60;;;;;;5154839;27;20464;-45
2022/04/24 02:53:52;;;;;;;0.80;0.33;;;13.30;95.20;;;;;;5154314;27;20472;-46
2022/04/24 02:56:19;;;;;;;2.30;0.60;;;13.30;95.30;;;;;;5154558;27;20521;-46
2022/04/24 02:58:46;;;;;;;3.80;0.50;;;13.30;95.00;;;;;;5154599;27;20456;-45
2022/04/24 03:01:13;;;;;;;9.13;1.40;;;13.40;95.40;;;;;;5154550;27;20471;-45
2022/04/24 03:03:42;;;;;;;1.80;0.40;;;13.30;94.90;;;;;;5154057;27;20553;-45
2022/04/24 03:06:09;;;;;;;0.60;0.30;;;13.30;94.50;;;;;;5154484;27;20437;-45
2022/04/24 03:08:37;;;;;;;0.70;0.40;;;13.10;94.40;;;;;;5154575;27;20710;-45
2022/04/24 03:11:04;;;;;;;1.30;0.50;;;13.10;94.30;;;;;;5155008;27;20509;-46
2022/04/24 03:13:30;;;;;;;0.70;0.33;;;13.00;94.10;;;;;;5154767;27;20512;-45
2022/04/24 03:15:58;;;;;;;0.70;0.40;;;12.80;94.40;;;;;;5154853;27;20525;-45
2022/04/24 03:18:25;;;;;;;0.83;0.40;;;12.50;94.20;;;;;;5154284;27;20493;-46
2022/04/24 03:20:53;;;;;;;0.70;0.40;;;12.60;93.90;;;;;;5154575;27;20440;-46
2022/04/24 03:23:20;;;;;;;0.70;0.30;;;12.60;93.50;;;;;;5153963;27;20575;-45
2022/04/24 03:25:47;;;;;;;0.80;0.50;;;12.60;94.10;;;;;;5154316;27;20433;-50
2022/04/24 03:28:14;;;;;;;0.70;0.40;;;12.50;94.20;;;;;;5191096;22;20490;-44
2022/04/24 03:30:41;;;;;;;0.97;0.50;;;12.60;93.60;;;;;;5133106;27;20920;-44
2022/04/24 03:33:07;;;;;;;0.70;0.40;;;12.50;94.10;;;;;;5133067;27;20509;-45
2022/04/24 03:35:34;;;;;;;0.70;0.40;;;12.30;94.20;;;;;;5133092;27;20564;-47
2022/04/24 03:38:04;;;;;;;0.70;0.40;;;12.30;94.10;;;;;;5133210;27;20462;-45
2022/04/24 03:40:31;;;;;;;0.90;0.50;;;12.00;93.50;;;;;;5133272;27;20465;-45
2022/04/24 03:42:58;;;;;;;0.80;0.40;;;11.80;94.30;;;;;;5132992;27;21011;-45
2022/04/24 03:45:24;;;;;;;57.80;6.90;;;11.70;94.50;;;;;;5132869;27;20788;-45
2022/04/24 03:47:52;;;;;;;1.10;0.60;;;12.20;78.80;;;;;;5132975;27;20518;-45
2022/04/24 03:50:20;;;;;;;0.60;0.30;;;12.40;80.70;;;;;;5133053;27;20810;-45
2022/04/24 03:52:47;;;;;;;0.60;0.40;;;12.50;82.70;;;;;;5132528;27;20444;-49
2022/04/24 03:55:15;;;;;;;0.80;0.50;;;12.60;81.00;;;;;;5132641;27;21079;-44
2022/04/24 03:57:42;;;;;;;1.87;0.57;;;12.40;80.40;;;;;;5132797;27;20505;-47
2022/04/24 04:00:10;;;;;;;0.70;0.30;;;12.50;65.70;;;;;;5131891;27;20498;-46
2022/04/24 04:02:43;;;;;;;1.33;0.60;;;12.60;71.00;;;;;;5132783;27;20777;-44
2022/04/24 04:05:11;;;;;;;0.70;0.40;;;12.60;66.40;;;;;;5132328;27;20434;-45
2022/04/24 04:07:38;;;;;;;0.80;0.40;;;12.70;63.60;;;;;;5132578;27;20544;-47
2022/04/24 04:10:06;;;;;;;1.33;0.50;;;12.70;64.30;;;;;;5132490;27;20481;-44
2022/04/24 04:12:35;;;;;;;1.33;0.60;;;12.60;66.70;;;;;;5132432;27;20510;-45
2022/04/24 04:15:02;;;;;;;0.90;0.40;;;12.40;70.10;;;;;;5132363;27;20505;-45
2022/04/24 04:17:29;;;;;;;0.80;0.50;;;12.40;70.10;;;;;;5132579;27;20469;-45
2022/04/24 04:19:56;;;;;;;2.73;0.60;;;12.30;69.60;;;;;;5132352;27;20533;-45
2022/04/24 04:22:23;;;;;;;1.03;0.50;;;12.10;69.40;;;;;;5132061;27;20473;-48
2022/04/24 04:24:50;;;;;;;0.70;0.50;;;12.30;66.70;;;;;;5132339;27;20434;-44
2022/04/24 04:27:17;;;;;;;1.43;0.73;;;12.00;67.30;;;;;;5132234;27;20470;-49
2022/04/24 04:29:45;;;;;;;0.83;0.50;;;12.00;67.50;;;;;;5132138;27;20477;-44
2022/04/24 04:32:12;;;;;;;0.80;0.53;;;12.30;69.50;;;;;;5132061;27;20464;-45
2022/04/24 04:34:39;;;;;;;1.20;0.80;;;12.30;65.70;;;;;;5131896;27;20491;-46
2022/04/24 04:37:06;;;;;;;0.90;0.47;;;12.30;68.40;;;;;;5132224;27;20821;-46
2022/04/24 04:39:32;;;;;;;0.70;0.40;;;12.30;68.70;;;;;;5131978;27;20476;-45
2022/04/24 04:41:59;;;;;;;0.70;0.50;;;12.50;65.20;;;;;;5131624;27;20438;-46
2022/04/24 04:44:26;;;;;;;0.80;0.50;;;12.60;66.00;;;;;;5131911;27;20919;-44
2022/04/24 04:46:55;;;;;;;1.47;0.50;;;12.90;63.90;;;;;;5131919;27;20859;-45
2022/04/24 04:49:22;;;;;;;1.27;0.50;;;13.00;63.40;;;;;;5131765;27;20449;-44
2022/04/24 04:51:48;;;;;;;1.00;0.50;;;13.10;61.90;;;;;;5131843;27;20448;-46
2022/04/24 04:54:15;;;;;;;0.80;0.37;;;13.00;64.50;;;;;;5131517;27;20884;-45
2022/04/24 04:56:42;;;;;;;0.70;0.43;;;13.00;64.10;;;;;;5131864;27;20565;-45
2022/04/24 04:59:09;;;;;;;1.00;0.50;;;13.00;65.20;;;;;;5131814;27;20477;-46
2022/04/24 05:01:36;;;;;;;0.80;0.63;;;12.80;65.00;;;;;;5131935;27;20441;-45
2022/04/24 05:04:04;;;;;;;1.47;0.50;;;12.80;66.10;;;;;;5130865;27;20923;-45
2022/04/24 05:06:32;;;;;;;1.83;0.50;;;13.00;64.20;;;;;;5131862;28;20479;-46
2022/04/24 05:08:58;;;;;;;1.03;0.60;;;13.10;65.00;;;;;;5131900;28;20462;-45
2022/04/24 05:11:25;;;;;;;0.80;0.40;;;13.30;64.90;;;;;;5131611;28;20437;-49
2022/04/24 05:13:52;;;;;;;0.80;0.50;;;13.30;64.50;;;;;;5131313;28;20951;-45
2022/04/24 05:16:20;;;;;;;1.67;0.60;;;13.30;63.20;;;;;;5131738;28;20556;-45
2022/04/24 05:18:47;;;;;;;1.80;0.50;;;13.40;64.50;;;;;;5131624;28;20881;-47
2022/04/24 05:21:16;;;;;;;0.80;0.50;;;13.20;65.10;;;;;;5131673;28;20473;-45
2022/04/24 05:23:46;;;;;;;1.00;0.60;;;13.20;66.00;;;;;;5131445;28;20449;-45
2022/04/24 05:26:13;;;;;;;1.30;0.50;;;13.10;66.50;;;;;;5131501;28;20437;-47
2022/04/24 05:28:40;;;;;;;0.70;0.50;;;13.20;67.50;;;;;;5131424;28;20468;-45
2022/04/24 05:31:07;;;;;;;0.70;0.40;;;13.20;65.50;;;;;;5131300;28;20476;-45
2022/04/24 05:33:34;;;;;;;1.17;0.50;;;13.30;66.10;;;;;;5131382;28;20477;-45
2022/04/24 05:36:00;;;;;;;0.73;0.40;;;13.40;65.40;;;;;;5131572;28;20903;-45
2022/04/24 05:38:29;;;;;;;1.33;0.60;;;13.60;63.90;;;;;;5131317;28;20510;-46
2022/04/24 05:40:56;;;;;;;1.60;0.60;;;13.70;67.50;;;;;;5131171;28;20480;-45
2022/04/24 05:43:22;;;;;;;0.87;0.60;;;13.60;71.80;;;;;;5131088;28;20469;-45
2022/04/24 05:45:49;;;;;;;1.70;0.90;;;13.50;68.50;;;;;;5131357;28;20532;-45
2022/04/24 05:48:18;;;;;;;0.80;0.50;;;13.50;68.10;;;;;;5131841;28;20500;-45
2022/04/24 05:50:45;;;;;;;0.80;0.60;;;13.50;67.90;;;;;;5131294;28;20446;-45
2022/04/24 05:53:12;;;;;;;0.80;0.67;;;13.40;67.20;;;;;;5131294;27;20525;-49
2022/04/24 05:55:40;;;;;;;1.10;0.80;;;13.50;68.30;;;;;;5134062;27;20519;-45
2022/04/24 05:58:08;;;;;;;1.60;0.70;;;13.50;71.20;;;;;;5135227;27;20493;-47
2022/04/24 06:00:36;;;;;;;1.00;0.60;;;13.60;72.50;;;;;;5134548;27;20529;-46
2022/04/24 06:03:03;;;;;;;1.50;0.60;;;13.60;68.40;;;;;;5134693;27;20443;-49
2022/04/24 06:05:30;;;;;;;1.03;0.70;;;13.70;69.90;;;;;;5134374;27;20465;-45
2022/04/24 06:07:57;;;;;;;1.60;0.83;;;13.70;72.80;;;;;;5134873;27;20492;-45
2022/04/24 06:10:24;;;;;;;1.97;0.70;;;13.70;70.80;;;;;;5134841;27;20940;-43
2022/04/24 06:12:54;;;;;;;1.60;0.80;;;13.70;69.60;;;;;;5134875;27;20554;-45
2022/04/24 06:15:22;;;;;;;1.57;0.60;;;13.70;69.40;;;;;;5134662;27;20512;-45
2022/04/24 06:17:51;;;;;;;0.77;0.50;;;13.90;63.00;;;;;;5134777;27;20461;-44
2022/04/24 06:20:19;;;;;;;1.40;0.70;;;13.90;67.40;;;;;;5134459;27;21000;-44
2022/04/24 06:22:47;;;;;;;0.73;0.40;;;13.90;68.40;;;;;;5134736;27;20498;-45
2022/04/24 06:25:19;;;;;;;2.27;0.50;;;14.10;58.60;;;;;;5134630;27;20502;-46
2022/04/24 06:27:46;;;;;;;1.87;0.70;;;14.10;63.00;;;;;;5134540;27;20552;-45
2022/04/24 06:30:15;;;;;;;0.90;0.50;;;13.90;67.20;;;;;;5134369;27;20459;-47
2022/04/24 06:32:44;;;;;;;0.93;0.70;;;13.90;68.40;;;;;;5134159;27;20461;-44
2022/04/24 06:35:13;;;;;;;1.10;0.50;;;14.10;65.50;;;;;;5134163;27;20492;-48
2022/04/24 06:37:41;;;;;;;1.20;0.60;;;14.20;64.70;;;;;;5134453;27;20468;-45
2022/04/24 06:40:09;;;;;;;0.90;0.60;;;14.00;66.30;;;;;;5134460;27;20484;-45
2022/04/24 06:42:36;;;;;;;0.70;0.50;;;13.90;66.30;;;;;;5134204;27;20499;-45
2022/04/24 06:45:04;;;;;;;0.70;0.40;;;13.80;69.30;;;;;;5134172;27;20802;-44
2022/04/24 06:47:32;;;;;;;2.03;0.53;;;13.90;69.50;;;;;;5134401;27;20512;-45
2022/04/24 06:49:59;;;;;;;1.20;0.70;;;13.80;67.40;;;;;;5134137;27;20463;-45
2022/04/24 06:52:26;;;;;;;0.70;0.43;;;13.70;67.70;;;;;;5133891;27;20465;-49
2022/04/24 06:54:54;;;;;;;1.17;0.80;;;13.70;65.00;;;;;;5134330;27;20480;-45
2022/04/24 06:57:21;;;;;;;0.80;0.50;;;13.90;69.10;;;;;;5133825;27;20477;-44
2022/04/24 06:59:47;;;;;;;1.40;1.00;;;14.20;68.90;;;;;;5133356;27;20445;-44
2022/04/24 07:02:14;;;;;;;2.17;0.90;;;14.40;69.70;;;;;;5133956;27;20847;-49
2022/04/24 07:04:43;;;;;;;5.27;4.43;;;14.40;70.80;;;;;;5133275;27;20499;-44
2022/04/24 07:07:10;;;;;;;1.43;0.60;;;14.50;69.20;;;;;;5133560;27;20453;-45
2022/04/24 07:09:36;;;;;;;19.80;18.63;;;14.80;67.80;;;;;;5133552;27;20498;-46
2022/04/24 07:12:04;;;;;;;0.80;0.77;;;14.80;65.70;;;;;;5133782;27;20863;-47
2022/04/24 07:14:31;;;;;;;0.90;0.67;;;15.00;66.30;;;;;;5133606;27;20473;-44
2022/04/24 07:16:58;;;;;;;0.90;0.50;;;15.20;62.00;;;;;;5133759;27;20562;-48
2022/04/24 07:19:24;;;;;;;0.80;0.50;;;15.40;69.20;;;;;;5133283;27;20442;-45
2022/04/24 07:21:53;;;;;;;1.17;0.40;;;15.60;65.60;;;;;;5133517;27;20437;-45
2022/04/24 07:24:20;;;;;;;1.87;0.60;;;15.70;66.30;;;;;;5133353;27;20471;-44
2022/04/24 07:26:46;;;;;;;0.80;0.50;;;15.80;66.40;;;;;;5133458;27;20489;-45
2022/04/24 07:29:13;;;;;;;0.80;0.60;;;15.80;63.40;;;;;;5133357;27;20437;-45
2022/04/24 07:31:40;;;;;;;1.50;0.50;;;15.80;61.80;;;;;;5133302;27;20875;-45
2022/04/24 07:34:07;;;;;;;1.10;0.40;;;15.90;62.90;;;;;;5133389;27;20438;-45
2022/04/24 07:36:35;;;;;;;1.57;0.40;;;15.80;63.00;;;;;;5115058;27;20565;-44
2022/04/24 07:39:03;;;;;;;0.80;0.50;;;15.40;61.40;;;;;;5133184;27;20449;-44
2022/04/24 07:41:30;;;;;;;9.50;0.70;;;15.30;62.30;;;;;;5133424;27;20487;-45
2022/04/24 07:43:57;;;;;;;1.77;0.43;;;15.50;57.50;;;;;;5132869;27;20468;-45
2022/04/24 07:46:24;;;;;;;0.80;0.50;;;15.20;59.60;;;;;;5133131;27;20486;-46
2022/04/24 07:48:51;;;;;;;1.20;0.53;;;15.20;59.90;;;;;;5133068;27;20522;-44
2022/04/24 07:51:18;;;;;;;0.87;0.60;;;15.20;59.20;;;;;;5132942;27;20851;-48
2022/04/24 07:53:45;;;;;;;0.93;0.60;;;15.20;66.10;;;;;;5133060;27;20484;-47
2022/04/24 07:56:13;;;;;;;1.00;0.40;;;14.90;66.10;;;;;;5132734;27;20550;-46
2022/04/24 07:58:40;;;;;;;2.20;0.70;;;14.60;64.80;;;;;;5132530;27;20496;-44
2022/04/24 08:01:07;;;;;;;1.60;0.50;;;14.50;66.00;;;;;;5132411;27;20525;-45
2022/04/24 08:03:34;;;;;;;0.97;0.63;;;14.60;65.50;;;;;;5131849;27;20442;-44
2022/04/24 08:06:01;;;;;;;0.70;0.40;;;14.60;66.40;;;;;;5132782;27;20433;-49
2022/04/24 08:08:28;;;;;;;1.90;0.60;;;14.60;67.50;;;;;;5132306;27;20991;-45
2022/04/24 08:10:56;;;;;;;1.20;0.43;;;14.70;67.50;;;;;;5132526;27;20529;-44
2022/04/24 08:13:26;;;;;;;2.03;0.50;;;14.60;68.50;;;;;;5132103;27;20811;-49
2022/04/24 08:15:53;;;;;;;0.90;0.43;;;14.40;69.40;;;;;;5132396;27;20434;-45
2022/04/24 08:18:21;;;;;;;1.27;1.00;;;14.40;69.00;;;;;;5131785;27;20522;-45
2022/04/24 08:20:48;;;;;;;1.53;1.23;;;14.50;67.90;;;;;;5132249;27;20442;-47
2022/04/24 08:23:17;;;;;;;2.47;2.27;;;14.60;69.00;;;;;;5132056;27;20951;-44
2022/04/24 08:25:44;;;;;;;6.10;4.43;;;14.60;69.40;;;;;;5132297;27;20442;-45
2022/04/24 08:28:12;;;;;;;8.07;5.60;;;14.70;68.50;;;;;;5131956;27;20465;-45
2022/04/24 08:30:42;;;;;;;3.10;1.83;;;15.00;65.80;;;;;;5132285;27;20445;-45
2022/04/24 08:33:10;;;;;;;1.23;0.57;;;15.20;68.90;;;;;;5131863;27;20806;-45
2022/04/24 08:35:37;;;;;;;1.93;0.60;;;15.30;67.30;;;;;;5131988;27;20473;-48
2022/04/24 08:38:04;;;;;;;1.67;0.97;;;15.50;71.50;;;;;;5131790;27;20509;-45
2022/04/24 08:40:31;;;;;;;1.20;0.60;;;15.50;69.80;;;;;;5131761;27;20463;-47
2022/04/24 08:42:58;;;;;;;1.03;0.63;;;15.70;69.10;;;;;;5132310;27;20506;-44
2022/04/24 08:45:27;;;;;;;1.30;0.60;;;16.00;69.00;;;;;;5132380;27;20470;-49
2022/04/24 08:47:56;;;;;;;1.20;0.60;;;16.10;69.20;;;;;;5132198;27;20454;-45
2022/04/24 08:50:27;;;;;;;0.70;0.50;;;16.20;70.90;;;;;;5131848;27;20931;-50
2022/04/24 08:52:56;;;;;;;1.00;0.53;;;16.30;65.70;;;;;;5131634;27;20525;-47
2022/04/24 08:55:25;;;;;;;0.70;0.40;;;16.40;66.80;;;;;;5131770;27;20791;-44
2022/04/24 08:57:52;;;;;;;2.20;0.60;;;16.30;65.20;;;;;;5131763;27;20940;-45
2022/04/24 09:00:19;;;;;;;1.67;1.23;;;16.10;65.10;;;;;;5131386;27;20528;-45
2022/04/24 09:02:47;;;;;;;0.70;0.43;;;16.10;63.90;;;;;;5131904;27;20442;-46
2022/04/24 09:05:16;;;;;;;0.80;0.50;;;15.90;63.90;;;;;;5131627;27;20454;-44
2022/04/24 09:07:43;;;;;;;0.80;0.50;;;15.90;63.90;;;;;;5131924;28;20486;-45
2022/04/24 09:10:12;;;;;;;0.80;0.50;;;15.90;67.20;;;;;;5131771;28;20437;-45
2022/04/24 09:12:40;;;;;;;0.70;0.40;;;15.80;66.10;;;;;;5131411;28;20446;-46
2022/04/24 09:15:08;;;;;;;1.13;0.40;;;15.50;65.80;;;;;;5131665;28;20536;-45
2022/04/24 09:17:37;;;;;;;0.80;0.33;;;15.60;63.40;;;;;;5131452;28;20560;-48
2022/04/24 09:20:18;;;;;;;0.77;0.50;;;15.70;64.50;;;;;;5131493;28;20811;-46
2022/04/24 09:22:45;;;;;;;1.53;0.37;;;15.60;65.40;;;;;;5131544;28;20860;-47
2022/04/24 09:25:13;;;;;;;0.77;0.47;;;15.70;61.90;;;;;;5131455;28;20470;-45
2022/04/24 09:27:40;;;;;;;0.70;0.40;;;15.70;63.50;;;;;;5132686;28;20873;-45
2022/04/24 09:30:11;;;;;;;0.80;0.40;;;15.80;60.00;;;;;;5135606;27;20503;-45
2022/04/24 09:32:47;;;;;;;0.97;0.40;;;16.00;63.10;;;;;;5135419;27;20561;-47
2022/04/24 09:35:30;;;;;;;0.80;0.40;;;16.00;63.20;;;;;;5135820;27;20443;-48
2022/04/24 09:38:13;;;;;;;1.10;0.57;;;15.90;59.60;;;;;;5135562;27;20481;-45
2022/04/24 09:40:41;;;;;;;0.90;0.50;;;15.90;62.10;;;;;;5135534;27;20465;-44
2022/04/24 09:43:12;;;;;;;1.00;0.90;;;15.70;64.50;;;;;;5135212;27;20499;-45
2022/04/24 09:45:40;;;;;;;0.80;0.50;;;15.60;65.60;;;;;;5135631;27;20473;-49
2022/04/24 09:48:14;;;;;;;0.80;0.30;;;15.80;65.20;;;;;;5134177;27;20561;-47
2022/04/24 09:50:43;;;;;;;1.47;0.70;;;15.90;65.80;;;;;;5135306;27;20211;-49
2022/04/24 09:53:13;;;;;;;2.00;1.13;;;16.00;64.70;;;;;;5135030;27;20520;-45
2022/04/24 09:55:43;;;;;;;1.20;0.40;;;16.20;65.20;;;;;;5135032;27;20440;-45
2022/04/24 09:58:11;;;;;;;1.00;0.50;;;16.40;63.20;;;;;;5135058;27;20478;-46
2022/04/24 10:00:38;;;;;;;0.80;0.40;;;16.50;61.40;;;;;;5134948;27;20745;-45
2022/04/24 10:03:05;;;;;;;0.70;0.40;;;16.70;60.10;;;;;;5134840;27;20437;-45
2022/04/24 10:05:32;;;;;;;0.90;0.40;;;17.10;66.40;;;;;;5134729;27;20524;-46
2022/04/24 10:08:02;;;;;;;0.70;0.40;;;17.40;64.60;;;;;;5134869;27;20454;-45
2022/04/24 10:10:29;;;;;;;0.70;0.30;;;17.50;65.40;;;;;;5134952;27;20437;-44
2022/04/24 10:13:00;;;;;;;0.80;0.40;;;17.60;62.00;;;;;;5134842;27;20522;-45
2022/04/24 10:15:29;;;;;;;1.00;0.50;;;17.70;64.00;;;;;;5134874;27;20532;-46
2022/04/24 10:18:30;;;;;;;0.70;0.43;;;17.90;62.50;;;;;;5134500;27;20501;-45
2022/04/24 10:21:32;;;;;;;1.20;1.10;;;18.00;62.00;;;;;;5134862;27;20485;-45
2022/04/24 10:24:09;;;;;;;2.80;0.60;;;18.20;60.20;;;;;;5131871;27;20485;-45
2022/04/24 10:26:37;;;;;;;2.60;0.73;;;18.40;60.40;;;;;;5134595;27;20494;-46
2022/04/24 10:29:06;;;;;;;1.50;0.60;;;18.40;59.80;;;;;;5134518;27;20504;-48
2022/04/24 10:31:43;;;;;;;1.67;0.53;;;18.30;57.80;;;;;;5134971;27;20434;-45
2022/04/24 10:34:11;;;;;;;1.10;0.40;;;18.30;58.40;;;;;;5134616;27;20444;-45
2022/04/24 10:36:38;;;;;;;0.80;0.40;;;17.40;55.80;;;;;;5134780;27;20444;-45
2022/04/24 10:39:17;;;;;;;0.70;0.33;;;17.90;61.50;;;;;;5134201;27;20499;-45
2022/04/24 10:41:54;;;;;;;0.80;0.40;;;17.80;56.70;;;;;;5133566;27;20957;-45
2022/04/24 10:44:22;;;;;;;1.53;0.40;;;17.90;57.70;;;;;;5134169;27;21064;-45
2022/04/24 10:46:50;;;;;;;7.17;0.70;;;18.10;61.50;;;;;;5134197;27;20804;-46
2022/04/24 10:49:19;;;;;;;0.77;0.40;;;18.20;57.80;;;;;;5133959;27;20520;-48
2022/04/24 10:51:59;;;;;;;0.77;0.40;;;18.20;58.70;;;;;;5134319;27;20854;-45
2022/04/24 10:54:34;;;;;;;0.70;0.30;;;18.30;56.70;;;;;;5133777;27;20468;-45
2022/04/24 10:57:01;;;;;;;0.70;0.30;;;18.50;57.10;;;;;;5134087;27;20561;-45
2022/04/24 10:59:42;;;;;;;0.80;0.40;;;18.60;58.60;;;;;;5133795;27;20458;-46
2022/04/24 11:02:10;;;;;;;0.80;0.40;;;18.60;57.40;;;;;;5134018;27;20449;-45
2022/04/24 11:04:40;;;;;;;4.97;4.00;;;18.70;59.20;;;;;;5133516;27;20955;-45
2022/04/24 11:07:07;;;;;;;5.00;4.00;;;18.80;57.20;;;;;;5133613;27;20479;-45
2022/04/24 11:09:37;;;;;;;9.23;6.47;;;18.90;54.40;;;;;;5133532;27;20536;-47
2022/04/24 11:12:07;;;;;;;4.93;3.23;;;18.90;54.80;;;;;;5133783;27;20987;-46
2022/04/24 11:14:35;;;;;;;1.13;0.60;;;18.80;54.70;;;;;;5133899;27;20440;-46
2022/04/24 11:17:04;;;;;;;1.60;0.47;;;18.80;56.60;;;;;;5133806;27;20569;-46
2022/04/24 11:19:32;;;;;;;2.23;0.70;;;18.80;56.90;;;;;;5133764;27;20528;-51
2022/04/24 11:22:01;;;;;;;1.13;0.50;;;18.90;55.30;;;;;;5133580;27;20480;-48
2022/04/24 11:24:30;;;;;;;0.70;0.30;;;19.00;56.80;;;;;;5133383;27;20433;-45
2022/04/24 11:27:02;;;;;;;0.70;0.30;;;18.90;54.70;;;;;;5133096;27;20462;-45
2022/04/24 11:29:32;;;;;;;0.87;0.40;;;18.90;55.90;;;;;;5115203;27;20512;-45
2022/04/24 11:32:00;;;;;;;1.03;0.37;;;18.90;52.80;;;;;;5133290;27;20467;-45
2022/04/24 11:34:27;;;;;;;0.70;0.30;;;18.90;53.80;;;;;;5133134;27;20515;-46
2022/04/24 11:36:57;;;;;;;0.90;0.40;;;19.00;57.10;;;;;;5132989;27;20436;-46
2022/04/24 11:39:24;;;;;;;0.80;0.50;;;19.10;53.50;;;;;;5133294;27;20437;-47
2022/04/24 11:41:52;;;;;;;1.87;0.50;;;19.10;53.60;;;;;;5133123;27;20856;-45
2022/04/24 11:52:37;;;;;;;1.80;0.40;;;18.90;53.20;;;;;;5132673;27;20429;-47
2022/04/24 11:55:06;;;;;;;0.80;0.40;;;18.70;52.60;;;;;;5132955;27;20438;-45
2022/04/24 11:57:33;;;;;;;0.73;0.30;;;18.40;52.70;;;;;;5132540;27;20485;-45
2022/04/24 12:00:03;;;;;;;1.00;0.40;;;18.10;53.00;;;;;;5132389;27;20498;-45
2022/04/24 12:02:30;;;;;;;0.80;0.33;;;17.80;54.00;;;;;;5132723;27;20448;-45
2022/04/24 12:04:58;;;;;;;0.80;0.40;;;17.90;55.70;;;;;;5132715;27;20486;-45
2022/04/24 12:07:31;;;;;;;0.80;0.40;;;17.90;56.00;;;;;;5132616;27;20489;-46
2022/04/24 12:09:59;;;;;;;0.90;0.40;;;17.70;54.50;;;;;;5132856;27;20437;-47
2022/04/24 12:12:26;;;;;;;0.97;0.30;;;17.90;55.80;;;;;;5132184;27;20857;-48
2022/04/24 12:14:53;;;;;;;3.03;0.63;;;17.90;52.00;;;;;;5132503;27;20469;-45
2022/04/24 12:17:22;;;;;;;0.70;0.40;;;17.70;56.70;;;;;;5132327;27;20507;-44
2022/04/24 12:19:54;;;;;;;0.70;0.40;;;17.80;56.50;;;;;;5132637;27;20864;-45
2022/04/24 12:22:28;;;;;;;1.57;0.50;;;17.90;55.00;;;;;;5132253;27;20512;-48
2022/04/24 12:25:07;;;;;;;0.80;0.40;;;17.90;54.30;;;;;;5132180;27;20823;-45
2022/04/24 12:27:34;;;;;;;0.70;0.40;;;18.00;54.00;;;;;;5132236;27;20465;-46
2022/04/24 12:30:04;;;;;;;1.47;0.40;;;18.10;57.10;;;;;;5132374;27;20465;-49
2022/04/24 12:32:34;;;;;;;0.90;0.50;;;18.30;58.10;;;;;;5132013;27;20461;-46
2022/04/24 12:35:01;;;;;;;1.73;0.40;;;18.30;55.90;;;;;;5132562;27;20946;-46
2022/04/24 12:37:30;;;;;;;0.70;0.33;;;18.40;57.50;;;;;;5132045;27;20466;-47
2022/04/24 12:39:58;;;;;;;0.70;0.40;;;18.40;55.20;;;;;;5131872;27;21008;-45
2022/04/24 12:42:25;;;;;;;2.33;0.40;;;18.40;56.90;;;;;;5132002;27;20490;-45
2022/04/24 12:44:53;;;;;;;0.70;0.30;;;18.40;52.60;;;;;;5132181;27;20441;-48
2022/04/24 12:47:21;;;;;;;0.90;0.40;;;18.30;54.70;;;;;;5132103;27;20557;-45
2022/04/24 12:49:49;;;;;;;1.10;0.80;;;18.20;56.00;;;;;;5132070;27;20813;-44
2022/04/24 12:52:20;;;;;;;0.73;0.33;;;18.20;58.90;;;;;;5131954;27;20722;-45
2022/04/24 12:54:47;;;;;;;0.90;0.40;;;18.20;54.90;;;;;;5132092;27;20450;-46
2022/04/24 12:57:16;;;;;;;1.00;0.60;;;18.10;56.80;;;;;;5131742;27;20983;-45
2022/04/24 12:59:43;;;;;;;1.00;0.70;;;18.10;57.10;;;;;;5131248;27;20441;-49